<?xml version="1.0" encoding="UTF-8" standalone="no" ?>
<gpx xmlns="http://www.topografix.com/GPX/1/1" xmlns:xsi="http://www.w3.org/2001/XMLSchema-instance" xsi:schemaLocation="http://www.topografix.com/GPX/1/1 http://www.topografix.com/GPX/1/1/gpx.xsd" version="1.1" creator="VisuGPX - https://www.visugpx.com">
  <metadata>
    <name>Redon_Chateaulin</name>
    <desc><![CDATA[Randonnée cyclotouriste de Redon à Châteaulin par le chemin de halage du canal de Nantes à Brest avec quelques échappées vers Rostrenen, Carhaix et Pleyben.]]></desc>
  </metadata>
  <trk>
    <name><![CDATA[ACTIVE LOG 005]]></name>
    <trkseg>
      <trkpt lat="48.10762" lon="-2.81408">
        <ele>120.30212402344</ele>
        <time>2012-04-16T11:54:03Z</time>
      </trkpt>
      <trkpt lat="48.10753" lon="-2.8135">
        <ele>93.385131835938</ele>
        <time>2012-04-16T11:54:55Z</time>
      </trkpt>
      <trkpt lat="48.10753" lon="-2.81349">
        <ele>93.385131835938</ele>
        <time>2012-04-16T11:59:09Z</time>
      </trkpt>
      <trkpt lat="48.10748" lon="-2.81347">
        <ele>94.8271484375</ele>
        <time>2012-04-16T11:59:15Z</time>
      </trkpt>
      <trkpt lat="48.10749" lon="-2.81343">
        <ele>95.307739257812</ele>
        <time>2012-04-16T11:59:17Z</time>
      </trkpt>
      <trkpt lat="48.10753" lon="-2.81338">
        <ele>95.788452148438</ele>
        <time>2012-04-16T11:59:22Z</time>
      </trkpt>
      <trkpt lat="48.10759" lon="-2.81335">
        <ele>95.788452148438</ele>
        <time>2012-04-16T11:59:46Z</time>
      </trkpt>
      <trkpt lat="48.1076" lon="-2.81335">
        <ele>95.788452148438</ele>
        <time>2012-04-16T12:00:09Z</time>
      </trkpt>
      <trkpt lat="48.10761" lon="-2.81332">
        <ele>95.307739257812</ele>
        <time>2012-04-16T12:06:55Z</time>
      </trkpt>
      <trkpt lat="48.10766" lon="-2.81328">
        <ele>94.8271484375</ele>
        <time>2012-04-16T12:07:04Z</time>
      </trkpt>
      <trkpt lat="48.10778" lon="-2.81343">
        <ele>94.346557617188</ele>
        <time>2012-04-16T12:07:10Z</time>
      </trkpt>
      <trkpt lat="48.10806" lon="-2.81407">
        <ele>93.865844726562</ele>
        <time>2012-04-16T12:07:24Z</time>
      </trkpt>
      <trkpt lat="48.10857" lon="-2.81522">
        <ele>91.462524414062</ele>
        <time>2012-04-16T12:07:50Z</time>
      </trkpt>
      <trkpt lat="48.109" lon="-2.81623">
        <ele>93.385131835938</ele>
        <time>2012-04-16T12:08:16Z</time>
      </trkpt>
      <trkpt lat="48.10958" lon="-2.81754">
        <ele>92.904541015625</ele>
        <time>2012-04-16T12:08:45Z</time>
      </trkpt>
      <trkpt lat="48.10982" lon="-2.81808">
        <ele>92.904541015625</ele>
        <time>2012-04-16T12:09:00Z</time>
      </trkpt>
      <trkpt lat="48.1102" lon="-2.81889">
        <ele>91.943237304688</ele>
        <time>2012-04-16T12:09:18Z</time>
      </trkpt>
      <trkpt lat="48.11049" lon="-2.81962">
        <ele>93.385131835938</ele>
        <time>2012-04-16T12:09:35Z</time>
      </trkpt>
      <trkpt lat="48.11087" lon="-2.82049">
        <ele>95.307739257812</ele>
        <time>2012-04-16T12:09:55Z</time>
      </trkpt>
      <trkpt lat="48.11125" lon="-2.82141">
        <ele>96.749877929688</ele>
        <time>2012-04-16T12:10:18Z</time>
      </trkpt>
      <trkpt lat="48.11135" lon="-2.8216">
        <ele>96.749877929688</ele>
        <time>2012-04-16T12:10:34Z</time>
      </trkpt>
      <trkpt lat="48.11135" lon="-2.82166">
        <ele>97.711181640625</ele>
        <time>2012-04-16T12:10:50Z</time>
      </trkpt>
      <trkpt lat="48.11145" lon="-2.82187">
        <ele>99.153076171875</ele>
        <time>2012-04-16T12:13:51Z</time>
      </trkpt>
      <trkpt lat="48.11167" lon="-2.82251">
        <ele>99.6337890625</ele>
        <time>2012-04-16T12:14:04Z</time>
      </trkpt>
      <trkpt lat="48.11177" lon="-2.82305">
        <ele>103.95971679688</ele>
        <time>2012-04-16T12:14:17Z</time>
      </trkpt>
      <trkpt lat="48.11177" lon="-2.82329">
        <ele>104.92102050781</ele>
        <time>2012-04-16T12:14:27Z</time>
      </trkpt>
      <trkpt lat="48.1118" lon="-2.82334">
        <ele>104.92102050781</ele>
        <time>2012-04-16T12:14:30Z</time>
      </trkpt>
      <trkpt lat="48.1118" lon="-2.82345">
        <ele>105.40173339844</ele>
        <time>2012-04-16T12:14:34Z</time>
      </trkpt>
      <trkpt lat="48.11187" lon="-2.82458">
        <ele>105.88244628906</ele>
        <time>2012-04-16T12:14:54Z</time>
      </trkpt>
      <trkpt lat="48.11195" lon="-2.82527">
        <ele>107.80505371094</ele>
        <time>2012-04-16T12:15:08Z</time>
      </trkpt>
      <trkpt lat="48.11208" lon="-2.8264">
        <ele>109.24694824219</ele>
        <time>2012-04-16T12:15:32Z</time>
      </trkpt>
      <trkpt lat="48.11218" lon="-2.82723">
        <ele>107.32434082031</ele>
        <time>2012-04-16T12:15:48Z</time>
      </trkpt>
      <trkpt lat="48.11241" lon="-2.82825">
        <ele>111.16955566406</ele>
        <time>2012-04-16T12:16:09Z</time>
      </trkpt>
      <trkpt lat="48.11278" lon="-2.82897">
        <ele>112.13098144531</ele>
        <time>2012-04-16T12:16:27Z</time>
      </trkpt>
      <trkpt lat="48.11305" lon="-2.8295">
        <ele>112.61157226562</ele>
        <time>2012-04-16T12:16:39Z</time>
      </trkpt>
      <trkpt lat="48.11344" lon="-2.83024">
        <ele>116.45678710938</ele>
        <time>2012-04-16T12:16:58Z</time>
      </trkpt>
      <trkpt lat="48.11399" lon="-2.83101">
        <ele>115.97619628906</ele>
        <time>2012-04-16T12:17:19Z</time>
      </trkpt>
      <trkpt lat="48.11424" lon="-2.83133">
        <ele>118.86010742188</ele>
        <time>2012-04-16T12:17:33Z</time>
      </trkpt>
      <trkpt lat="48.11439" lon="-2.83151">
        <ele>118.86010742188</ele>
        <time>2012-04-16T12:17:45Z</time>
      </trkpt>
      <trkpt lat="48.11452" lon="-2.83167">
        <ele>120.30212402344</ele>
        <time>2012-04-16T12:17:54Z</time>
      </trkpt>
      <trkpt lat="48.11458" lon="-2.83174">
        <ele>120.30212402344</ele>
        <time>2012-04-16T12:17:58Z</time>
      </trkpt>
      <trkpt lat="48.11509" lon="-2.83233">
        <ele>120.30212402344</ele>
        <time>2012-04-16T12:18:18Z</time>
      </trkpt>
      <trkpt lat="48.11555" lon="-2.83295">
        <ele>118.86010742188</ele>
        <time>2012-04-16T12:18:38Z</time>
      </trkpt>
      <trkpt lat="48.1159" lon="-2.83349">
        <ele>120.78283691406</ele>
        <time>2012-04-16T12:18:53Z</time>
      </trkpt>
      <trkpt lat="48.11615" lon="-2.83398">
        <ele>125.58935546875</ele>
        <time>2012-04-16T12:19:07Z</time>
      </trkpt>
      <trkpt lat="48.11639" lon="-2.83463">
        <ele>126.55065917969</ele>
        <time>2012-04-16T12:19:23Z</time>
      </trkpt>
      <trkpt lat="48.11654" lon="-2.83521">
        <ele>127.51196289062</ele>
        <time>2012-04-16T12:19:36Z</time>
      </trkpt>
      <trkpt lat="48.11658" lon="-2.8356">
        <ele>127.51196289062</ele>
        <time>2012-04-16T12:19:46Z</time>
      </trkpt>
      <trkpt lat="48.11656" lon="-2.8358">
        <ele>128.47338867188</ele>
        <time>2012-04-16T12:19:52Z</time>
      </trkpt>
      <trkpt lat="48.11656" lon="-2.83632">
        <ele>129.43469238281</ele>
        <time>2012-04-16T12:19:58Z</time>
      </trkpt>
      <trkpt lat="48.11646" lon="-2.83664">
        <ele>129.43469238281</ele>
        <time>2012-04-16T12:20:04Z</time>
      </trkpt>
      <trkpt lat="48.11622" lon="-2.83735">
        <ele>129.91528320312</ele>
        <time>2012-04-16T12:20:18Z</time>
      </trkpt>
      <trkpt lat="48.11599" lon="-2.83793">
        <ele>126.55065917969</ele>
        <time>2012-04-16T12:20:29Z</time>
      </trkpt>
      <trkpt lat="48.11568" lon="-2.83872">
        <ele>128.9541015625</ele>
        <time>2012-04-16T12:20:45Z</time>
      </trkpt>
      <trkpt lat="48.11535" lon="-2.83954">
        <ele>130.39599609375</ele>
        <time>2012-04-16T12:21:02Z</time>
      </trkpt>
      <trkpt lat="48.11516" lon="-2.84">
        <ele>135.68310546875</ele>
        <time>2012-04-16T12:21:14Z</time>
      </trkpt>
      <trkpt lat="48.11499" lon="-2.84045">
        <ele>142.41247558594</ele>
        <time>2012-04-16T12:21:25Z</time>
      </trkpt>
      <trkpt lat="48.1146" lon="-2.84142">
        <ele>148.66101074219</ele>
        <time>2012-04-16T12:21:44Z</time>
      </trkpt>
      <trkpt lat="48.11446" lon="-2.84176">
        <ele>145.77709960938</ele>
        <time>2012-04-16T12:21:49Z</time>
      </trkpt>
      <trkpt lat="48.11441" lon="-2.84188">
        <ele>145.29638671875</ele>
        <time>2012-04-16T12:21:51Z</time>
      </trkpt>
      <trkpt lat="48.11434" lon="-2.84208">
        <ele>146.73840332031</ele>
        <time>2012-04-16T12:21:55Z</time>
      </trkpt>
      <trkpt lat="48.11417" lon="-2.84249">
        <ele>150.58361816406</ele>
        <time>2012-04-16T12:22:03Z</time>
      </trkpt>
      <trkpt lat="48.11409" lon="-2.8427">
        <ele>151.544921875</ele>
        <time>2012-04-16T12:22:08Z</time>
      </trkpt>
      <trkpt lat="48.11399" lon="-2.84296">
        <ele>152.50634765625</ele>
        <time>2012-04-16T12:22:12Z</time>
      </trkpt>
      <trkpt lat="48.11388" lon="-2.84321">
        <ele>148.18041992188</ele>
        <time>2012-04-16T12:22:16Z</time>
      </trkpt>
      <trkpt lat="48.11372" lon="-2.84361">
        <ele>148.66101074219</ele>
        <time>2012-04-16T12:22:24Z</time>
      </trkpt>
      <trkpt lat="48.11357" lon="-2.84399">
        <ele>154.42895507812</ele>
        <time>2012-04-16T12:22:31Z</time>
      </trkpt>
      <trkpt lat="48.11349" lon="-2.8443">
        <ele>160.19689941406</ele>
        <time>2012-04-16T12:22:36Z</time>
      </trkpt>
      <trkpt lat="48.11345" lon="-2.84475">
        <ele>155.39025878906</ele>
        <time>2012-04-16T12:22:43Z</time>
      </trkpt>
      <trkpt lat="48.11343" lon="-2.84493">
        <ele>152.02575683594</ele>
        <time>2012-04-16T12:22:46Z</time>
      </trkpt>
      <trkpt lat="48.11351" lon="-2.84582">
        <ele>144.33520507812</ele>
        <time>2012-04-16T12:23:00Z</time>
      </trkpt>
      <trkpt lat="48.11357" lon="-2.84644">
        <ele>149.1416015625</ele>
        <time>2012-04-16T12:23:11Z</time>
      </trkpt>
      <trkpt lat="48.11363" lon="-2.84708">
        <ele>152.02575683594</ele>
        <time>2012-04-16T12:23:22Z</time>
      </trkpt>
      <trkpt lat="48.11381" lon="-2.84798">
        <ele>135.20251464844</ele>
        <time>2012-04-16T12:23:37Z</time>
      </trkpt>
      <trkpt lat="48.11406" lon="-2.84855">
        <ele>128.9541015625</ele>
        <time>2012-04-16T12:23:49Z</time>
      </trkpt>
      <trkpt lat="48.11427" lon="-2.84888">
        <ele>126.55065917969</ele>
        <time>2012-04-16T12:23:57Z</time>
      </trkpt>
      <trkpt lat="48.11491" lon="-2.84931">
        <ele>127.99255371094</ele>
        <time>2012-04-16T12:24:15Z</time>
      </trkpt>
      <trkpt lat="48.11548" lon="-2.84946">
        <ele>127.51196289062</ele>
        <time>2012-04-16T12:24:30Z</time>
      </trkpt>
      <trkpt lat="48.11558" lon="-2.84948">
        <ele>127.03137207031</ele>
        <time>2012-04-16T12:24:33Z</time>
      </trkpt>
      <trkpt lat="48.11632" lon="-2.84963">
        <ele>126.55065917969</ele>
        <time>2012-04-16T12:24:51Z</time>
      </trkpt>
      <trkpt lat="48.11671" lon="-2.84969">
        <ele>126.55065917969</ele>
        <time>2012-04-16T12:25:01Z</time>
      </trkpt>
      <trkpt lat="48.11731" lon="-2.84975">
        <ele>126.06994628906</ele>
        <time>2012-04-16T12:25:16Z</time>
      </trkpt>
      <trkpt lat="48.11782" lon="-2.84983">
        <ele>127.99255371094</ele>
        <time>2012-04-16T12:25:29Z</time>
      </trkpt>
      <trkpt lat="48.11817" lon="-2.85004">
        <ele>130.87670898438</ele>
        <time>2012-04-16T12:25:38Z</time>
      </trkpt>
      <trkpt lat="48.11847" lon="-2.85034">
        <ele>130.87670898438</ele>
        <time>2012-04-16T12:25:47Z</time>
      </trkpt>
      <trkpt lat="48.11869" lon="-2.85093">
        <ele>128.9541015625</ele>
        <time>2012-04-16T12:25:57Z</time>
      </trkpt>
      <trkpt lat="48.11886" lon="-2.85217">
        <ele>129.91528320312</ele>
        <time>2012-04-16T12:26:16Z</time>
      </trkpt>
      <trkpt lat="48.11895" lon="-2.85316">
        <ele>129.91528320312</ele>
        <time>2012-04-16T12:26:32Z</time>
      </trkpt>
      <trkpt lat="48.11913" lon="-2.85464">
        <ele>127.03137207031</ele>
        <time>2012-04-16T12:26:55Z</time>
      </trkpt>
      <trkpt lat="48.11925" lon="-2.85522">
        <ele>127.03137207031</ele>
        <time>2012-04-16T12:27:04Z</time>
      </trkpt>
      <trkpt lat="48.11932" lon="-2.85546">
        <ele>125.58935546875</ele>
        <time>2012-04-16T12:27:08Z</time>
      </trkpt>
      <trkpt lat="48.11978" lon="-2.857">
        <ele>126.06994628906</ele>
        <time>2012-04-16T12:27:33Z</time>
      </trkpt>
      <trkpt lat="48.11985" lon="-2.85776">
        <ele>126.55065917969</ele>
        <time>2012-04-16T12:27:44Z</time>
      </trkpt>
      <trkpt lat="48.11985" lon="-2.85809">
        <ele>128.47338867188</ele>
        <time>2012-04-16T12:27:49Z</time>
      </trkpt>
      <trkpt lat="48.11978" lon="-2.85912">
        <ele>128.47338867188</ele>
        <time>2012-04-16T12:28:06Z</time>
      </trkpt>
      <trkpt lat="48.11951" lon="-2.86031">
        <ele>127.51196289062</ele>
        <time>2012-04-16T12:28:25Z</time>
      </trkpt>
      <trkpt lat="48.11926" lon="-2.86135">
        <ele>128.9541015625</ele>
        <time>2012-04-16T12:28:42Z</time>
      </trkpt>
      <trkpt lat="48.11926" lon="-2.86149">
        <ele>127.99255371094</ele>
        <time>2012-04-16T12:28:44Z</time>
      </trkpt>
      <trkpt lat="48.11938" lon="-2.86204">
        <ele>128.9541015625</ele>
        <time>2012-04-16T12:28:53Z</time>
      </trkpt>
      <trkpt lat="48.11945" lon="-2.86232">
        <ele>128.9541015625</ele>
        <time>2012-04-16T12:28:58Z</time>
      </trkpt>
      <trkpt lat="48.11954" lon="-2.86266">
        <ele>127.03137207031</ele>
        <time>2012-04-16T12:29:04Z</time>
      </trkpt>
      <trkpt lat="48.11958" lon="-2.86284">
        <ele>126.55065917969</ele>
        <time>2012-04-16T12:29:07Z</time>
      </trkpt>
      <trkpt lat="48.11964" lon="-2.86307">
        <ele>127.03137207031</ele>
        <time>2012-04-16T12:29:11Z</time>
      </trkpt>
      <trkpt lat="48.11974" lon="-2.86384">
        <ele>127.51196289062</ele>
        <time>2012-04-16T12:29:23Z</time>
      </trkpt>
      <trkpt lat="48.11961" lon="-2.86502">
        <ele>128.47338867188</ele>
        <time>2012-04-16T12:29:41Z</time>
      </trkpt>
      <trkpt lat="48.11933" lon="-2.86569">
        <ele>125.10876464844</ele>
        <time>2012-04-16T12:29:53Z</time>
      </trkpt>
      <trkpt lat="48.1187" lon="-2.86672">
        <ele>124.62805175781</ele>
        <time>2012-04-16T12:30:14Z</time>
      </trkpt>
      <trkpt lat="48.11838" lon="-2.86723">
        <ele>127.03137207031</ele>
        <time>2012-04-16T12:30:26Z</time>
      </trkpt>
      <trkpt lat="48.11819" lon="-2.86786">
        <ele>127.51196289062</ele>
        <time>2012-04-16T12:30:36Z</time>
      </trkpt>
      <trkpt lat="48.11799" lon="-2.86858">
        <ele>126.55065917969</ele>
        <time>2012-04-16T12:30:48Z</time>
      </trkpt>
      <trkpt lat="48.11791" lon="-2.86913">
        <ele>128.47338867188</ele>
        <time>2012-04-16T12:30:57Z</time>
      </trkpt>
      <trkpt lat="48.11785" lon="-2.86955">
        <ele>128.47338867188</ele>
        <time>2012-04-16T12:31:04Z</time>
      </trkpt>
      <trkpt lat="48.11774" lon="-2.87044">
        <ele>130.87670898438</ele>
        <time>2012-04-16T12:31:18Z</time>
      </trkpt>
      <trkpt lat="48.11769" lon="-2.87104">
        <ele>133.27990722656</ele>
        <time>2012-04-16T12:31:28Z</time>
      </trkpt>
      <trkpt lat="48.11766" lon="-2.87134">
        <ele>132.31860351562</ele>
        <time>2012-04-16T12:31:33Z</time>
      </trkpt>
      <trkpt lat="48.11768" lon="-2.87221">
        <ele>128.9541015625</ele>
        <time>2012-04-16T12:31:50Z</time>
      </trkpt>
      <trkpt lat="48.1177" lon="-2.87241">
        <ele>128.9541015625</ele>
        <time>2012-04-16T12:31:57Z</time>
      </trkpt>
      <trkpt lat="48.11771" lon="-2.87245">
        <ele>128.47338867188</ele>
        <time>2012-04-16T12:31:59Z</time>
      </trkpt>
      <trkpt lat="48.11785" lon="-2.87318">
        <ele>126.06994628906</ele>
        <time>2012-04-16T12:32:12Z</time>
      </trkpt>
      <trkpt lat="48.11791" lon="-2.87346">
        <ele>126.06994628906</ele>
        <time>2012-04-16T12:32:16Z</time>
      </trkpt>
      <trkpt lat="48.11806" lon="-2.87417">
        <ele>125.58935546875</ele>
        <time>2012-04-16T12:32:28Z</time>
      </trkpt>
      <trkpt lat="48.11794" lon="-2.87484">
        <ele>125.58935546875</ele>
        <time>2012-04-16T12:32:38Z</time>
      </trkpt>
      <trkpt lat="48.1178" lon="-2.87564">
        <ele>129.91528320312</ele>
        <time>2012-04-16T12:32:51Z</time>
      </trkpt>
      <trkpt lat="48.11772" lon="-2.87609">
        <ele>131.35729980469</ele>
        <time>2012-04-16T12:32:58Z</time>
      </trkpt>
      <trkpt lat="48.11765" lon="-2.87651">
        <ele>131.837890625</ele>
        <time>2012-04-16T12:33:05Z</time>
      </trkpt>
      <trkpt lat="48.11748" lon="-2.87748">
        <ele>134.72192382812</ele>
        <time>2012-04-16T12:33:20Z</time>
      </trkpt>
      <trkpt lat="48.11716" lon="-2.87897">
        <ele>129.43469238281</ele>
        <time>2012-04-16T12:33:42Z</time>
      </trkpt>
      <trkpt lat="48.11678" lon="-2.88008">
        <ele>129.91528320312</ele>
        <time>2012-04-16T12:34:00Z</time>
      </trkpt>
      <trkpt lat="48.11633" lon="-2.88076">
        <ele>127.51196289062</ele>
        <time>2012-04-16T12:34:16Z</time>
      </trkpt>
      <trkpt lat="48.11576" lon="-2.88125">
        <ele>127.51196289062</ele>
        <time>2012-04-16T12:34:31Z</time>
      </trkpt>
      <trkpt lat="48.11529" lon="-2.88206">
        <ele>126.55065917969</ele>
        <time>2012-04-16T12:34:49Z</time>
      </trkpt>
      <trkpt lat="48.11498" lon="-2.88322">
        <ele>126.06994628906</ele>
        <time>2012-04-16T12:35:08Z</time>
      </trkpt>
      <trkpt lat="48.1147" lon="-2.88448">
        <ele>125.58935546875</ele>
        <time>2012-04-16T12:35:29Z</time>
      </trkpt>
      <trkpt lat="48.11446" lon="-2.88556">
        <ele>127.03137207031</ele>
        <time>2012-04-16T12:35:48Z</time>
      </trkpt>
      <trkpt lat="48.1144" lon="-2.88634">
        <ele>130.39599609375</ele>
        <time>2012-04-16T12:36:04Z</time>
      </trkpt>
      <trkpt lat="48.11439" lon="-2.88653">
        <ele>130.39599609375</ele>
        <time>2012-04-16T12:36:07Z</time>
      </trkpt>
      <trkpt lat="48.11432" lon="-2.88759">
        <ele>129.91528320312</ele>
        <time>2012-04-16T12:36:24Z</time>
      </trkpt>
      <trkpt lat="48.11428" lon="-2.88823">
        <ele>129.91528320312</ele>
        <time>2012-04-16T12:36:35Z</time>
      </trkpt>
      <trkpt lat="48.1143" lon="-2.88904">
        <ele>129.91528320312</ele>
        <time>2012-04-16T12:36:49Z</time>
      </trkpt>
      <trkpt lat="48.11432" lon="-2.88977">
        <ele>129.43469238281</ele>
        <time>2012-04-16T12:37:06Z</time>
      </trkpt>
      <trkpt lat="48.11432" lon="-2.88977">
        <ele>129.43469238281</ele>
        <time>2012-04-16T12:37:09Z</time>
      </trkpt>
      <trkpt lat="48.11449" lon="-2.88972">
        <ele>128.9541015625</ele>
        <time>2012-04-16T12:37:17Z</time>
      </trkpt>
      <trkpt lat="48.11437" lon="-2.89008">
        <ele>127.51196289062</ele>
        <time>2012-04-16T12:37:21Z</time>
      </trkpt>
      <trkpt lat="48.11439" lon="-2.89019">
        <ele>127.03137207031</ele>
        <time>2012-04-16T12:37:24Z</time>
      </trkpt>
      <trkpt lat="48.11439" lon="-2.88976">
        <ele>127.03137207031</ele>
        <time>2012-04-16T12:37:26Z</time>
      </trkpt>
      <trkpt lat="48.11444" lon="-2.89068">
        <ele>125.10876464844</ele>
        <time>2012-04-16T12:37:36Z</time>
      </trkpt>
      <trkpt lat="48.11425" lon="-2.89208">
        <ele>121.744140625</ele>
        <time>2012-04-16T12:37:52Z</time>
      </trkpt>
      <trkpt lat="48.11404" lon="-2.89315">
        <ele>119.82141113281</ele>
        <time>2012-04-16T12:38:05Z</time>
      </trkpt>
      <trkpt lat="48.11401" lon="-2.89331">
        <ele>119.82141113281</ele>
        <time>2012-04-16T12:38:07Z</time>
      </trkpt>
      <trkpt lat="48.11395" lon="-2.8936">
        <ele>119.3408203125</ele>
        <time>2012-04-16T12:38:11Z</time>
      </trkpt>
      <trkpt lat="48.11385" lon="-2.89477">
        <ele>114.5341796875</ele>
        <time>2012-04-16T12:38:27Z</time>
      </trkpt>
      <trkpt lat="48.11407" lon="-2.89619">
        <ele>113.57299804688</ele>
        <time>2012-04-16T12:38:44Z</time>
      </trkpt>
      <trkpt lat="48.11434" lon="-2.8976">
        <ele>112.13098144531</ele>
        <time>2012-04-16T12:39:04Z</time>
      </trkpt>
      <trkpt lat="48.11459" lon="-2.89894">
        <ele>111.16955566406</ele>
        <time>2012-04-16T12:39:23Z</time>
      </trkpt>
      <trkpt lat="48.1149" lon="-2.90054">
        <ele>107.80505371094</ele>
        <time>2012-04-16T12:39:45Z</time>
      </trkpt>
      <trkpt lat="48.11508" lon="-2.90147">
        <ele>107.80505371094</ele>
        <time>2012-04-16T12:40:01Z</time>
      </trkpt>
      <trkpt lat="48.11514" lon="-2.90244">
        <ele>106.84362792969</ele>
        <time>2012-04-16T12:40:18Z</time>
      </trkpt>
      <trkpt lat="48.11502" lon="-2.90245">
        <ele>106.36303710938</ele>
        <time>2012-04-16T12:40:22Z</time>
      </trkpt>
      <trkpt lat="48.11491" lon="-2.90245">
        <ele>105.88244628906</ele>
        <time>2012-04-16T12:40:26Z</time>
      </trkpt>
      <trkpt lat="48.11477" lon="-2.90262">
        <ele>104.92102050781</ele>
        <time>2012-04-16T12:40:31Z</time>
      </trkpt>
      <trkpt lat="48.11521" lon="-2.90321">
        <ele>102.99829101562</ele>
        <time>2012-04-16T12:40:38Z</time>
      </trkpt>
      <trkpt lat="48.11511" lon="-2.90387">
        <ele>102.51770019531</ele>
        <time>2012-04-16T12:40:46Z</time>
      </trkpt>
      <trkpt lat="48.11462" lon="-2.90477">
        <ele>103.47900390625</ele>
        <time>2012-04-16T12:41:03Z</time>
      </trkpt>
      <trkpt lat="48.11462" lon="-2.90477">
        <ele>102.99829101562</ele>
        <time>2012-04-16T12:41:09Z</time>
      </trkpt>
      <trkpt lat="48.11344" lon="-2.90587">
        <ele>103.47900390625</ele>
        <time>2012-04-16T12:41:29Z</time>
      </trkpt>
      <trkpt lat="48.1129" lon="-2.90739">
        <ele>104.4404296875</ele>
        <time>2012-04-16T12:41:53Z</time>
      </trkpt>
      <trkpt lat="48.11226" lon="-2.90921">
        <ele>104.92102050781</ele>
        <time>2012-04-16T12:42:21Z</time>
      </trkpt>
      <trkpt lat="48.11199" lon="-2.91045">
        <ele>103.47900390625</ele>
        <time>2012-04-16T12:42:39Z</time>
      </trkpt>
      <trkpt lat="48.11191" lon="-2.91079">
        <ele>103.47900390625</ele>
        <time>2012-04-16T12:42:44Z</time>
      </trkpt>
      <trkpt lat="48.11217" lon="-2.912">
        <ele>102.51770019531</ele>
        <time>2012-04-16T12:42:57Z</time>
      </trkpt>
      <trkpt lat="48.11161" lon="-2.91178">
        <ele>101.55639648438</ele>
        <time>2012-04-16T12:43:03Z</time>
      </trkpt>
      <trkpt lat="48.11121" lon="-2.91197">
        <ele>102.99829101562</ele>
        <time>2012-04-16T12:43:16Z</time>
      </trkpt>
      <trkpt lat="48.1108" lon="-2.91189">
        <ele>105.40173339844</ele>
        <time>2012-04-16T12:43:30Z</time>
      </trkpt>
      <trkpt lat="48.11041" lon="-2.91174">
        <ele>103.95971679688</ele>
        <time>2012-04-16T12:43:42Z</time>
      </trkpt>
      <trkpt lat="48.11034" lon="-2.9117">
        <ele>102.99829101562</ele>
        <time>2012-04-16T12:43:44Z</time>
      </trkpt>
      <trkpt lat="48.10937" lon="-2.91147">
        <ele>104.4404296875</ele>
        <time>2012-04-16T12:44:05Z</time>
      </trkpt>
      <trkpt lat="48.10803" lon="-2.91161">
        <ele>103.47900390625</ele>
        <time>2012-04-16T12:44:35Z</time>
      </trkpt>
      <trkpt lat="48.10672" lon="-2.91187">
        <ele>103.47900390625</ele>
        <time>2012-04-16T12:45:05Z</time>
      </trkpt>
      <trkpt lat="48.10592" lon="-2.91236">
        <ele>103.95971679688</ele>
        <time>2012-04-16T12:45:24Z</time>
      </trkpt>
      <trkpt lat="48.10556" lon="-2.91355">
        <ele>102.99829101562</ele>
        <time>2012-04-16T12:45:41Z</time>
      </trkpt>
      <trkpt lat="48.10575" lon="-2.91497">
        <ele>102.99829101562</ele>
        <time>2012-04-16T12:45:59Z</time>
      </trkpt>
      <trkpt lat="48.10595" lon="-2.91598">
        <ele>102.99829101562</ele>
        <time>2012-04-16T12:46:14Z</time>
      </trkpt>
      <trkpt lat="48.10604" lon="-2.91642">
        <ele>102.51770019531</ele>
        <time>2012-04-16T12:46:21Z</time>
      </trkpt>
      <trkpt lat="48.10608" lon="-2.91707">
        <ele>99.6337890625</ele>
        <time>2012-04-16T12:46:33Z</time>
      </trkpt>
      <trkpt lat="48.10608" lon="-2.91708">
        <ele>101.07568359375</ele>
        <time>2012-04-16T12:46:35Z</time>
      </trkpt>
      <trkpt lat="48.10608" lon="-2.91708">
        <ele>101.55639648438</ele>
        <time>2012-04-16T12:46:39Z</time>
      </trkpt>
      <trkpt lat="48.10608" lon="-2.91773">
        <ele>102.037109375</ele>
        <time>2012-04-16T12:46:44Z</time>
      </trkpt>
      <trkpt lat="48.10607" lon="-2.91792">
        <ele>101.07568359375</ele>
        <time>2012-04-16T12:46:47Z</time>
      </trkpt>
      <trkpt lat="48.10607" lon="-2.91856">
        <ele>101.07568359375</ele>
        <time>2012-04-16T12:46:57Z</time>
      </trkpt>
      <trkpt lat="48.10606" lon="-2.91974">
        <ele>101.07568359375</ele>
        <time>2012-04-16T12:47:15Z</time>
      </trkpt>
      <trkpt lat="48.10604" lon="-2.92075">
        <ele>102.037109375</ele>
        <time>2012-04-16T12:47:31Z</time>
      </trkpt>
      <trkpt lat="48.10604" lon="-2.92108">
        <ele>102.99829101562</ele>
        <time>2012-04-16T12:47:37Z</time>
      </trkpt>
      <trkpt lat="48.10604" lon="-2.92131">
        <ele>102.99829101562</ele>
        <time>2012-04-16T12:47:41Z</time>
      </trkpt>
      <trkpt lat="48.10603" lon="-2.92149">
        <ele>102.037109375</ele>
        <time>2012-04-16T12:47:44Z</time>
      </trkpt>
      <trkpt lat="48.10601" lon="-2.92234">
        <ele>104.4404296875</ele>
        <time>2012-04-16T12:47:57Z</time>
      </trkpt>
      <trkpt lat="48.10597" lon="-2.92281">
        <ele>105.88244628906</ele>
        <time>2012-04-16T12:48:04Z</time>
      </trkpt>
      <trkpt lat="48.10589" lon="-2.9232">
        <ele>108.28564453125</ele>
        <time>2012-04-16T12:48:11Z</time>
      </trkpt>
      <trkpt lat="48.10587" lon="-2.92337">
        <ele>109.24694824219</ele>
        <time>2012-04-16T12:48:14Z</time>
      </trkpt>
      <trkpt lat="48.10583" lon="-2.92363">
        <ele>106.36303710938</ele>
        <time>2012-04-16T12:48:18Z</time>
      </trkpt>
      <trkpt lat="48.1058" lon="-2.92381">
        <ele>106.36303710938</ele>
        <time>2012-04-16T12:48:21Z</time>
      </trkpt>
      <trkpt lat="48.1056" lon="-2.92532">
        <ele>102.037109375</ele>
        <time>2012-04-16T12:48:40Z</time>
      </trkpt>
      <trkpt lat="48.10556" lon="-2.92583">
        <ele>100.11450195312</ele>
        <time>2012-04-16T12:48:46Z</time>
      </trkpt>
      <trkpt lat="48.10555" lon="-2.92601">
        <ele>99.6337890625</ele>
        <time>2012-04-16T12:48:48Z</time>
      </trkpt>
      <trkpt lat="48.10568" lon="-2.92738">
        <ele>96.749877929688</ele>
        <time>2012-04-16T12:49:05Z</time>
      </trkpt>
      <trkpt lat="48.10593" lon="-2.92833">
        <ele>94.8271484375</ele>
        <time>2012-04-16T12:49:19Z</time>
      </trkpt>
      <trkpt lat="48.10611" lon="-2.92905">
        <ele>93.385131835938</ele>
        <time>2012-04-16T12:49:33Z</time>
      </trkpt>
      <trkpt lat="48.10628" lon="-2.93025">
        <ele>91.943237304688</ele>
        <time>2012-04-16T12:49:50Z</time>
      </trkpt>
      <trkpt lat="48.10643" lon="-2.93171">
        <ele>88.578735351562</ele>
        <time>2012-04-16T12:50:09Z</time>
      </trkpt>
      <trkpt lat="48.10654" lon="-2.93323">
        <ele>86.17529296875</ele>
        <time>2012-04-16T12:50:28Z</time>
      </trkpt>
      <trkpt lat="48.10656" lon="-2.93459">
        <ele>84.252685546875</ele>
        <time>2012-04-16T12:50:46Z</time>
      </trkpt>
      <trkpt lat="48.10652" lon="-2.93514">
        <ele>82.810791015625</ele>
        <time>2012-04-16T12:50:52Z</time>
      </trkpt>
      <trkpt lat="48.10643" lon="-2.93621">
        <ele>81.368774414062</ele>
        <time>2012-04-16T12:51:06Z</time>
      </trkpt>
      <trkpt lat="48.10641" lon="-2.93646">
        <ele>81.849365234375</ele>
        <time>2012-04-16T12:51:10Z</time>
      </trkpt>
      <trkpt lat="48.10635" lon="-2.93727">
        <ele>80.88818359375</ele>
        <time>2012-04-16T12:51:23Z</time>
      </trkpt>
      <trkpt lat="48.1064" lon="-2.9379">
        <ele>80.407470703125</ele>
        <time>2012-04-16T12:51:33Z</time>
      </trkpt>
      <trkpt lat="48.10647" lon="-2.93851">
        <ele>79.446044921875</ele>
        <time>2012-04-16T12:51:45Z</time>
      </trkpt>
      <trkpt lat="48.10649" lon="-2.93867">
        <ele>78.484741210938</ele>
        <time>2012-04-16T12:51:47Z</time>
      </trkpt>
      <trkpt lat="48.10663" lon="-2.93989">
        <ele>74.158813476562</ele>
        <time>2012-04-16T12:52:00Z</time>
      </trkpt>
      <trkpt lat="48.10658" lon="-2.94027">
        <ele>74.158813476562</ele>
        <time>2012-04-16T12:52:04Z</time>
      </trkpt>
      <trkpt lat="48.10653" lon="-2.94057">
        <ele>75.120239257812</ele>
        <time>2012-04-16T12:52:08Z</time>
      </trkpt>
      <trkpt lat="48.10615" lon="-2.94112">
        <ele>74.639526367188</ele>
        <time>2012-04-16T12:52:19Z</time>
      </trkpt>
      <trkpt lat="48.10557" lon="-2.94106">
        <ele>77.042846679688</ele>
        <time>2012-04-16T12:52:32Z</time>
      </trkpt>
      <trkpt lat="48.10468" lon="-2.94072">
        <ele>77.5234375</ele>
        <time>2012-04-16T12:52:51Z</time>
      </trkpt>
      <trkpt lat="48.10351" lon="-2.94037">
        <ele>78.484741210938</ele>
        <time>2012-04-16T12:53:14Z</time>
      </trkpt>
      <trkpt lat="48.10334" lon="-2.94032">
        <ele>78.484741210938</ele>
        <time>2012-04-16T12:53:21Z</time>
      </trkpt>
      <trkpt lat="48.10332" lon="-2.94031">
        <ele>78.004028320312</ele>
        <time>2012-04-16T12:53:23Z</time>
      </trkpt>
      <trkpt lat="48.1029" lon="-2.94015">
        <ele>75.600830078125</ele>
        <time>2012-04-16T12:53:34Z</time>
      </trkpt>
      <trkpt lat="48.1022" lon="-2.93988">
        <ele>74.639526367188</ele>
        <time>2012-04-16T12:53:49Z</time>
      </trkpt>
      <trkpt lat="48.10176" lon="-2.93971">
        <ele>74.639526367188</ele>
        <time>2012-04-16T12:53:58Z</time>
      </trkpt>
      <trkpt lat="48.10097" lon="-2.9393">
        <ele>76.081420898438</ele>
        <time>2012-04-16T12:54:15Z</time>
      </trkpt>
      <trkpt lat="48.10022" lon="-2.93888">
        <ele>75.600830078125</ele>
        <time>2012-04-16T12:54:31Z</time>
      </trkpt>
      <trkpt lat="48.09993" lon="-2.93873">
        <ele>76.562133789062</ele>
        <time>2012-04-16T12:54:37Z</time>
      </trkpt>
      <trkpt lat="48.09915" lon="-2.93831">
        <ele>71.755493164062</ele>
        <time>2012-04-16T12:54:54Z</time>
      </trkpt>
      <trkpt lat="48.09875" lon="-2.93809">
        <ele>71.27490234375</ele>
        <time>2012-04-16T12:55:03Z</time>
      </trkpt>
      <trkpt lat="48.09839" lon="-2.9379">
        <ele>71.27490234375</ele>
        <time>2012-04-16T12:55:11Z</time>
      </trkpt>
      <trkpt lat="48.09822" lon="-2.93781">
        <ele>71.27490234375</ele>
        <time>2012-04-16T12:55:15Z</time>
      </trkpt>
      <trkpt lat="48.09771" lon="-2.93753">
        <ele>71.755493164062</ele>
        <time>2012-04-16T12:55:27Z</time>
      </trkpt>
      <trkpt lat="48.09698" lon="-2.93706">
        <ele>70.3134765625</ele>
        <time>2012-04-16T12:55:42Z</time>
      </trkpt>
      <trkpt lat="48.09621" lon="-2.93672">
        <ele>72.716918945312</ele>
        <time>2012-04-16T12:55:57Z</time>
      </trkpt>
      <trkpt lat="48.09558" lon="-2.93666">
        <ele>73.67822265625</ele>
        <time>2012-04-16T12:56:11Z</time>
      </trkpt>
      <trkpt lat="48.09478" lon="-2.93669">
        <ele>74.158813476562</ele>
        <time>2012-04-16T12:56:29Z</time>
      </trkpt>
      <trkpt lat="48.09439" lon="-2.93667">
        <ele>73.197631835938</ele>
        <time>2012-04-16T12:56:43Z</time>
      </trkpt>
      <trkpt lat="48.09439" lon="-2.93667">
        <ele>72.716918945312</ele>
        <time>2012-04-16T12:56:58Z</time>
      </trkpt>
      <trkpt lat="48.09421" lon="-2.93666">
        <ele>71.27490234375</ele>
        <time>2012-04-16T13:00:59Z</time>
      </trkpt>
      <trkpt lat="48.0939" lon="-2.93665">
        <ele>68.87158203125</ele>
        <time>2012-04-16T13:01:13Z</time>
      </trkpt>
      <trkpt lat="48.0939" lon="-2.93665">
        <ele>69.832885742188</ele>
        <time>2012-04-16T13:03:02Z</time>
      </trkpt>
      <trkpt lat="48.0939" lon="-2.93665">
        <ele>71.755493164062</ele>
        <time>2012-04-16T13:07:41Z</time>
      </trkpt>
      <trkpt lat="48.0939" lon="-2.93665">
        <ele>72.716918945312</ele>
        <time>2012-04-16T13:12:58Z</time>
      </trkpt>
      <trkpt lat="48.09366" lon="-2.93663">
        <ele>73.197631835938</ele>
        <time>2012-04-16T13:14:30Z</time>
      </trkpt>
      <trkpt lat="48.09306" lon="-2.93664">
        <ele>71.755493164062</ele>
        <time>2012-04-16T13:14:45Z</time>
      </trkpt>
      <trkpt lat="48.09247" lon="-2.93676">
        <ele>70.3134765625</ele>
        <time>2012-04-16T13:14:58Z</time>
      </trkpt>
      <trkpt lat="48.09233" lon="-2.93679">
        <ele>69.352294921875</ele>
        <time>2012-04-16T13:15:01Z</time>
      </trkpt>
      <trkpt lat="48.09213" lon="-2.93683">
        <ele>69.352294921875</ele>
        <time>2012-04-16T13:15:05Z</time>
      </trkpt>
      <trkpt lat="48.0919" lon="-2.93688">
        <ele>68.87158203125</ele>
        <time>2012-04-16T13:15:10Z</time>
      </trkpt>
      <trkpt lat="48.0909" lon="-2.93708">
        <ele>65.507080078125</ele>
        <time>2012-04-16T13:15:31Z</time>
      </trkpt>
      <trkpt lat="48.09033" lon="-2.9372">
        <ele>66.46826171875</ele>
        <time>2012-04-16T13:15:43Z</time>
      </trkpt>
      <trkpt lat="48.09029" lon="-2.93721">
        <ele>66.46826171875</ele>
        <time>2012-04-16T13:15:44Z</time>
      </trkpt>
      <trkpt lat="48.09017" lon="-2.93723">
        <ele>65.987670898438</ele>
        <time>2012-04-16T13:15:47Z</time>
      </trkpt>
      <trkpt lat="48.08968" lon="-2.93733">
        <ele>68.87158203125</ele>
        <time>2012-04-16T13:15:57Z</time>
      </trkpt>
      <trkpt lat="48.08925" lon="-2.93747">
        <ele>66.948974609375</ele>
        <time>2012-04-16T13:16:04Z</time>
      </trkpt>
      <trkpt lat="48.08848" lon="-2.93812">
        <ele>65.987670898438</ele>
        <time>2012-04-16T13:16:19Z</time>
      </trkpt>
      <trkpt lat="48.08845" lon="-2.93819">
        <ele>65.987670898438</ele>
        <time>2012-04-16T13:16:20Z</time>
      </trkpt>
      <trkpt lat="48.08794" lon="-2.93909">
        <ele>66.948974609375</ele>
        <time>2012-04-16T13:16:35Z</time>
      </trkpt>
      <trkpt lat="48.08761" lon="-2.93968">
        <ele>66.46826171875</ele>
        <time>2012-04-16T13:16:45Z</time>
      </trkpt>
      <trkpt lat="48.08721" lon="-2.94039">
        <ele>65.507080078125</ele>
        <time>2012-04-16T13:16:58Z</time>
      </trkpt>
      <trkpt lat="48.08666" lon="-2.94137">
        <ele>66.948974609375</ele>
        <time>2012-04-16T13:17:16Z</time>
      </trkpt>
      <trkpt lat="48.08626" lon="-2.94208">
        <ele>65.987670898438</ele>
        <time>2012-04-16T13:17:29Z</time>
      </trkpt>
      <trkpt lat="48.0857" lon="-2.94308">
        <ele>65.507080078125</ele>
        <time>2012-04-16T13:17:48Z</time>
      </trkpt>
      <trkpt lat="48.08561" lon="-2.94323">
        <ele>64.545654296875</ele>
        <time>2012-04-16T13:17:53Z</time>
      </trkpt>
      <trkpt lat="48.08557" lon="-2.94347">
        <ele>64.065063476562</ele>
        <time>2012-04-16T13:17:55Z</time>
      </trkpt>
      <trkpt lat="48.08557" lon="-2.94399">
        <ele>65.0263671875</ele>
        <time>2012-04-16T13:18:10Z</time>
      </trkpt>
      <trkpt lat="48.08557" lon="-2.94399">
        <ele>64.545654296875</ele>
        <time>2012-04-16T13:18:20Z</time>
      </trkpt>
      <trkpt lat="48.08541" lon="-2.94558">
        <ele>61.661743164062</ele>
        <time>2012-04-16T13:18:32Z</time>
      </trkpt>
      <trkpt lat="48.08521" lon="-2.94697">
        <ele>61.661743164062</ele>
        <time>2012-04-16T13:18:50Z</time>
      </trkpt>
      <trkpt lat="48.08475" lon="-2.94796">
        <ele>61.661743164062</ele>
        <time>2012-04-16T13:19:08Z</time>
      </trkpt>
      <trkpt lat="48.0839" lon="-2.94924">
        <ele>61.181030273438</ele>
        <time>2012-04-16T13:19:33Z</time>
      </trkpt>
      <trkpt lat="48.08331" lon="-2.95015">
        <ele>60.2197265625</ele>
        <time>2012-04-16T13:19:49Z</time>
      </trkpt>
      <trkpt lat="48.08292" lon="-2.95073">
        <ele>60.700317382812</ele>
        <time>2012-04-16T13:20:00Z</time>
      </trkpt>
      <trkpt lat="48.08269" lon="-2.95108">
        <ele>61.181030273438</ele>
        <time>2012-04-16T13:20:07Z</time>
      </trkpt>
      <trkpt lat="48.08193" lon="-2.95201">
        <ele>60.2197265625</ele>
        <time>2012-04-16T13:20:27Z</time>
      </trkpt>
      <trkpt lat="48.08105" lon="-2.953">
        <ele>59.258422851562</ele>
        <time>2012-04-16T13:20:50Z</time>
      </trkpt>
      <trkpt lat="48.08039" lon="-2.95371">
        <ele>58.297119140625</ele>
        <time>2012-04-16T13:21:08Z</time>
      </trkpt>
      <trkpt lat="48.07958" lon="-2.95445">
        <ele>58.297119140625</ele>
        <time>2012-04-16T13:21:27Z</time>
      </trkpt>
      <trkpt lat="48.07898" lon="-2.955">
        <ele>56.855102539062</ele>
        <time>2012-04-16T13:21:42Z</time>
      </trkpt>
      <trkpt lat="48.07834" lon="-2.9556">
        <ele>57.335815429688</ele>
        <time>2012-04-16T13:21:58Z</time>
      </trkpt>
      <trkpt lat="48.07763" lon="-2.95627">
        <ele>56.37451171875</ele>
        <time>2012-04-16T13:22:16Z</time>
      </trkpt>
      <trkpt lat="48.07672" lon="-2.95715">
        <ele>57.335815429688</ele>
        <time>2012-04-16T13:22:40Z</time>
      </trkpt>
      <trkpt lat="48.07591" lon="-2.95795">
        <ele>55.4130859375</ele>
        <time>2012-04-16T13:22:58Z</time>
      </trkpt>
      <trkpt lat="48.07512" lon="-2.95889">
        <ele>54.451782226562</ele>
        <time>2012-04-16T13:23:16Z</time>
      </trkpt>
      <trkpt lat="48.07466" lon="-2.96079">
        <ele>53.97119140625</ele>
        <time>2012-04-16T13:23:43Z</time>
      </trkpt>
      <trkpt lat="48.07445" lon="-2.96165">
        <ele>53.009765625</ele>
        <time>2012-04-16T13:23:57Z</time>
      </trkpt>
      <trkpt lat="48.07432" lon="-2.96218">
        <ele>53.97119140625</ele>
        <time>2012-04-16T13:24:10Z</time>
      </trkpt>
      <trkpt lat="48.07432" lon="-2.96218">
        <ele>53.97119140625</ele>
        <time>2012-04-16T13:24:24Z</time>
      </trkpt>
      <trkpt lat="48.07428" lon="-2.96232">
        <ele>53.97119140625</ele>
        <time>2012-04-16T13:24:35Z</time>
      </trkpt>
      <trkpt lat="48.07411" lon="-2.96285">
        <ele>53.009765625</ele>
        <time>2012-04-16T13:24:42Z</time>
      </trkpt>
      <trkpt lat="48.0736" lon="-2.96364">
        <ele>51.087158203125</ele>
        <time>2012-04-16T13:24:59Z</time>
      </trkpt>
      <trkpt lat="48.07289" lon="-2.96414">
        <ele>51.087158203125</ele>
        <time>2012-04-16T13:25:14Z</time>
      </trkpt>
      <trkpt lat="48.07251" lon="-2.96441">
        <ele>50.606567382812</ele>
        <time>2012-04-16T13:25:24Z</time>
      </trkpt>
      <trkpt lat="48.07141" lon="-2.96519">
        <ele>50.606567382812</ele>
        <time>2012-04-16T13:25:52Z</time>
      </trkpt>
      <trkpt lat="48.07138" lon="-2.96522">
        <ele>50.606567382812</ele>
        <time>2012-04-16T13:26:02Z</time>
      </trkpt>
      <trkpt lat="48.07127" lon="-2.9653">
        <ele>51.087158203125</ele>
        <time>2012-04-16T13:26:09Z</time>
      </trkpt>
      <trkpt lat="48.07127" lon="-2.96504">
        <ele>51.087158203125</ele>
        <time>2012-04-16T13:26:14Z</time>
      </trkpt>
      <trkpt lat="48.07077" lon="-2.96445">
        <ele>51.087158203125</ele>
        <time>2012-04-16T13:26:34Z</time>
      </trkpt>
      <trkpt lat="48.07074" lon="-2.96441">
        <ele>50.606567382812</ele>
        <time>2012-04-16T13:26:36Z</time>
      </trkpt>
      <trkpt lat="48.07036" lon="-2.96437">
        <ele>51.087158203125</ele>
        <time>2012-04-16T13:26:50Z</time>
      </trkpt>
      <trkpt lat="48.06966" lon="-2.96446">
        <ele>49.645263671875</ele>
        <time>2012-04-16T13:27:11Z</time>
      </trkpt>
      <trkpt lat="48.06919" lon="-2.96467">
        <ele>53.009765625</ele>
        <time>2012-04-16T13:27:29Z</time>
      </trkpt>
      <trkpt lat="48.06906" lon="-2.96439">
        <ele>53.009765625</ele>
        <time>2012-04-16T13:27:33Z</time>
      </trkpt>
      <trkpt lat="48.06926" lon="-2.96396">
        <ele>51.087158203125</ele>
        <time>2012-04-16T13:27:45Z</time>
      </trkpt>
      <trkpt lat="48.0693" lon="-2.96388">
        <ele>51.56787109375</ele>
        <time>2012-04-16T13:27:48Z</time>
      </trkpt>
      <trkpt lat="48.06948" lon="-2.96386">
        <ele>53.009765625</ele>
        <time>2012-04-16T13:27:53Z</time>
      </trkpt>
      <trkpt lat="48.06961" lon="-2.96386">
        <ele>56.37451171875</ele>
        <time>2012-04-16T13:28:11Z</time>
      </trkpt>
      <trkpt lat="48.07003" lon="-2.9639">
        <ele>59.739135742188</ele>
        <time>2012-04-16T13:28:29Z</time>
      </trkpt>
      <trkpt lat="48.07003" lon="-2.9639">
        <ele>59.739135742188</ele>
        <time>2012-04-16T13:28:54Z</time>
      </trkpt>
      <trkpt lat="48.07003" lon="-2.9639">
        <ele>59.258422851562</ele>
        <time>2012-04-16T13:29:01Z</time>
      </trkpt>
      <trkpt lat="48.0701" lon="-2.9639">
        <ele>59.258422851562</ele>
        <time>2012-04-16T13:29:03Z</time>
      </trkpt>
      <trkpt lat="48.07012" lon="-2.96391">
        <ele>60.2197265625</ele>
        <time>2012-04-16T13:29:13Z</time>
      </trkpt>
      <trkpt lat="48.07012" lon="-2.96391">
        <ele>61.661743164062</ele>
        <time>2012-04-16T13:43:16Z</time>
      </trkpt>
      <trkpt lat="48.07012" lon="-2.96391">
        <ele>60.700317382812</ele>
        <time>2012-04-16T13:43:20Z</time>
      </trkpt>
      <trkpt lat="48.07" lon="-2.9639">
        <ele>60.2197265625</ele>
        <time>2012-04-16T13:43:43Z</time>
      </trkpt>
      <trkpt lat="48.06961" lon="-2.96386">
        <ele>58.777709960938</ele>
        <time>2012-04-16T13:44:09Z</time>
      </trkpt>
      <trkpt lat="48.06961" lon="-2.96386">
        <ele>58.297119140625</ele>
        <time>2012-04-16T13:44:17Z</time>
      </trkpt>
      <trkpt lat="48.06961" lon="-2.96386">
        <ele>60.2197265625</ele>
        <time>2012-04-16T13:44:20Z</time>
      </trkpt>
      <trkpt lat="48.06939" lon="-2.96386">
        <ele>60.2197265625</ele>
        <time>2012-04-16T13:44:33Z</time>
      </trkpt>
      <trkpt lat="48.06925" lon="-2.96386">
        <ele>61.661743164062</ele>
        <time>2012-04-16T13:44:40Z</time>
      </trkpt>
      <trkpt lat="48.06871" lon="-2.96386">
        <ele>61.181030273438</ele>
        <time>2012-04-16T13:44:58Z</time>
      </trkpt>
      <trkpt lat="48.06819" lon="-2.96382">
        <ele>66.948974609375</ele>
        <time>2012-04-16T13:45:15Z</time>
      </trkpt>
      <trkpt lat="48.0679" lon="-2.96379">
        <ele>68.390869140625</ele>
        <time>2012-04-16T13:45:25Z</time>
      </trkpt>
      <trkpt lat="48.06795" lon="-2.96408">
        <ele>66.948974609375</ele>
        <time>2012-04-16T13:45:30Z</time>
      </trkpt>
      <trkpt lat="48.06799" lon="-2.96461">
        <ele>67.4296875</ele>
        <time>2012-04-16T13:45:42Z</time>
      </trkpt>
      <trkpt lat="48.06801" lon="-2.96496">
        <ele>64.065063476562</ele>
        <time>2012-04-16T13:45:54Z</time>
      </trkpt>
      <trkpt lat="48.06801" lon="-2.96499">
        <ele>64.065063476562</ele>
        <time>2012-04-16T13:46:06Z</time>
      </trkpt>
      <trkpt lat="48.06801" lon="-2.96499">
        <ele>64.065063476562</ele>
        <time>2012-04-16T13:46:15Z</time>
      </trkpt>
      <trkpt lat="48.06802" lon="-2.96511">
        <ele>63.103637695312</ele>
        <time>2012-04-16T13:46:21Z</time>
      </trkpt>
      <trkpt lat="48.0675" lon="-2.96529">
        <ele>63.584350585938</ele>
        <time>2012-04-16T13:46:38Z</time>
      </trkpt>
      <trkpt lat="48.06724" lon="-2.96538">
        <ele>68.390869140625</ele>
        <time>2012-04-16T13:46:49Z</time>
      </trkpt>
      <trkpt lat="48.06716" lon="-2.96541">
        <ele>70.3134765625</ele>
        <time>2012-04-16T13:47:02Z</time>
      </trkpt>
      <trkpt lat="48.06684" lon="-2.96554">
        <ele>67.910278320312</ele>
        <time>2012-04-16T13:47:17Z</time>
      </trkpt>
      <trkpt lat="48.06655" lon="-2.96564">
        <ele>63.584350585938</ele>
        <time>2012-04-16T13:47:31Z</time>
      </trkpt>
      <trkpt lat="48.06655" lon="-2.96564">
        <ele>62.142333984375</ele>
        <time>2012-04-16T13:47:52Z</time>
      </trkpt>
      <trkpt lat="48.06655" lon="-2.96564">
        <ele>62.142333984375</ele>
        <time>2012-04-16T13:48:00Z</time>
      </trkpt>
      <trkpt lat="48.06655" lon="-2.96564">
        <ele>63.103637695312</ele>
        <time>2012-04-16T13:48:15Z</time>
      </trkpt>
      <trkpt lat="48.06655" lon="-2.96564">
        <ele>64.065063476562</ele>
        <time>2012-04-16T13:48:33Z</time>
      </trkpt>
    </trkseg>
  </trk>
</gpx>